• Join FlightAware (Why Join?)
  • Login
  • US Flag 
10:24AM EDT


 

Airport Tracker/Info


-or-


 

Live Flight TrackerFlight Track Log ✈ AWE3417 ✈ 21-Apr-2013 ✈ KDCA - KCMH

Flight Track Log - Related Links

Times and Time Zones

All times are in EDT time to prevent confusion due to time zone crossing. See the AWE3417 flight status page for this flight to view local times or setup timezone preferences in your user account.

Time Position Orientation Groundspeed Altitude Reporting Facility
EDT Latitude Longitude Course Direction KTS MPH feet Rate Location/Type
07:43PM 38.8000 -77.0333 274° West 198 228 1,800  Level Potomac TRACON
07:44PM 38.7333 -77.0500 191° South 271 312 5,000 3,360 Climbing Potomac TRACON
07:45PM 38.9167 -77.3814 270° West  Level FlightAware Approximate
07:45PM 38.7333 -77.1333 270° West 288 331 8,600  Level Potomac TRACON
07:46PM 38.9333 -77.5004 270° West  Level FlightAware Approximate
07:46PM 38.7667 -77.2333 293° West 310 357 11,100  Level Potomac TRACON
07:47PM 38.9333 -77.6257 270° West  Level FlightAware Approximate
07:47PM 38.8167 -77.3333 303° West 364 419 12,900  Level Potomac TRACON
07:48PM 38.9333 -77.7509 270° West  Level FlightAware Approximate
07:48PM 38.8500 -77.4500 290° West 368 423 15,300  Level Potomac TRACON
07:49PM 38.9389 -77.8760 274° West  Level FlightAware Approximate
07:50PM 38.9331 -77.6625 297° West 386 444 17,800  Level Washington Center
07:51PM 38.9475 -77.7936 278° West 372 428 19,400 1,860 Climbing Washington Center
07:52PM 38.9511 -77.9272 272° West 367 422 21,600 1,800 Climbing Washington Center
07:53PM 38.9547 -78.0608 272° West 372 428 23,100 1,440 Climbing Washington Center
07:54PM 38.9600 -78.2025 273° West 384 442 24,500 1,380 Climbing Washington Center
07:55PM 38.9653 -78.3442 273° West 396 456 25,900 1,200 Climbing Washington Center
07:56PM 38.9703 -78.4886 273° West 409 471 27,000 1,020 Climbing Washington Center
07:57PM 38.9728 -78.6381 271° West 414 476 28,000 900 Climbing Washington Center
07:58PM 38.9794 -78.7881 273° West 422 486 28,900 900 Climbing Washington Center
07:59PM 38.9836 -78.9403 272° West 427 491 29,900 540 Climbing Washington Center
08:00PM 38.9875 -79.0900 272° West 422 486 30,000  Climbing Washington Center
08:01PM 38.9894 -79.2397 271° West 422 486 30,000  Level Washington Center
08:02PM 38.9931 -79.3894 272° West 422 486 30,000  Level Washington Center
08:03PM 38.9986 -79.5394 273° West 422 486 30,000  Level Washington Center
08:04PM 38.9981 -79.6836 270° West 438 504 30,000  Level Washington Center
08:05PM 39.0033 -79.8361 273° West 438 504 30,000  Level Washington Center
08:08PM 39.0061 -80.2086 271° West 431 496 30,000 -60 Level Indianapolis Center
08:09PM 39.0108 -80.3628 272° West 432 497 29,900 -540 Descending Indianapolis Center
08:10PM 39.0508 -80.5125 289° West 444 511 29,000 -780 Descending Indianapolis Center
08:11PM 39.0969 -80.6625 292° West 450 518 28,400 -1,200 Descending Indianapolis Center
08:12PM 39.1414 -80.8078 292° West 440 506 26,600 -2,100 Descending Indianapolis Center
08:13PM 39.1828 -80.9469 291° West 421 484 24,100 -1,620 Descending Indianapolis Center
08:14PM 39.2242 -81.0825 292° West 410 472 23,300 -900 Descending Indianapolis Center
08:15PM 39.2650 -81.2208 291° West 413 475 22,300 -1,080 Descending Indianapolis Center
08:16PM 39.3131 -81.3867 291° West 413 475 21,100 -1,140 Descending Indianapolis Center
08:17PM 39.3528 -81.5203 291° West 403 464 20,100 -1,020 Descending Indianapolis Center
08:18PM 39.3911 -81.6542 290° West 400 460 19,100 -1,020 Descending Indianapolis Center
08:19PM 39.4294 -81.7856 291° West 394 453 18,100 -780 Descending Indianapolis Center
08:20PM 39.4667 -81.9161 290° West 389 448 17,600 -780 Descending Indianapolis Center
08:21PM 39.5044 -82.0453 291° West 385 443 16,600 -1,080 Descending Indianapolis Center
08:22PM 39.5392 -82.1794 289° West 383 441 15,500 -1,080 Descending Indianapolis Center
08:23PM 39.5808 -82.3161 292° West 379 436 14,500 -1,020 Descending Indianapolis Center
08:24PM 39.6633 -82.4006 322° Northwest 385 443 13,500 -1,020 Descending Indianapolis Center
08:25PM 39.7206 -82.4556 324° Northwest 343 395 12,700 -1,020 Descending Indianapolis Center
08:25PM 39.7386 -82.4692 330° Northwest 339 390 12,400 -1,020 Descending Indianapolis Center
08:26PM 39.7894 -82.5225 321° Northwest 299 344 11,700 -1,080 Descending Indianapolis Center
08:26PM 39.8208 -82.5503 326° Northwest 322 371 11,300 -1,020 Descending Indianapolis Center
08:27PM 39.8822 -82.6114 323° Northwest 365 420 10,600 -1,020 Descending Indianapolis Center
08:27PM 39.8981 -82.6328 314° West 353 406 10,300 -420 Descending Indianapolis Center
08:28PM 39.9047 -82.7142 276° West 296 341 10,200 -720 Descending Indianapolis Center
08:28PM 39.9067 -82.7406 275° West 296 341 9,600 -2,340 Descending Indianapolis Center
08:29PM 39.9089 -82.8072 273° West 268 308 8,100 -2,280 Descending Indianapolis Center
08:29PM 39.9117 -82.8414 276° West 279 321 7,300 -2,220 Descending Indianapolis Center
08:30PM 39.9150 -82.9056 274° West 267 307 5,900 -2,160 Descending Indianapolis Center
08:30PM 39.9183 -82.9386 278° West 271 312 5,100 -1,380 Descending Indianapolis Center
08:31PM 39.9253 -83.0319 276° West 267 307 4,100 -900 Descending Indianapolis Center
08:32PM 39.9633 -83.0881 312° West 242 278 3,500 -660 Descending Indianapolis Center